createdAt,value
2022-11-17T00:05:08.483Z,5.10
2022-11-17T00:20:30.906Z,5.60
2022-11-17T00:35:34.580Z,5.20
2022-11-17T00:50:37.696Z,7.20
2022-11-17T01:05:40.817Z,7.10
2022-11-17T01:20:44.255Z,6.20
2022-11-17T01:35:47.631Z,8.30
2022-11-17T01:50:51.048Z,7.70
2022-11-17T02:06:09.950Z,6.40
2022-11-17T02:21:35.229Z,5.30
2022-11-17T02:36:50.897Z,5.00
2022-11-17T02:51:58.161Z,6.80
2022-11-17T03:07:01.331Z,5.50
2022-11-17T03:22:28.474Z,12.10
2022-11-17T03:37:35.945Z,4.40
2022-11-17T03:52:39.308Z,5.40
2022-11-17T04:07:45.184Z,4.80
2022-11-17T04:23:07.235Z,3.80
2022-11-17T04:38:12.627Z,5.40
2022-11-17T04:53:15.887Z,7.30
2022-11-17T05:08:19.036Z,6.50
2022-11-17T05:23:41.093Z,6.40
2022-11-17T05:38:44.453Z,8.60
2022-11-17T05:53:49.402Z,11.90
2022-11-17T06:08:52.667Z,7.10
2022-11-17T06:23:56.249Z,7.50
2022-11-17T06:38:59.607Z,6.80
2022-11-17T06:54:04.682Z,8.90
2022-11-17T07:09:11.571Z,8.00
2022-11-17T07:24:15.321Z,7.20
2022-11-17T07:39:21.522Z,6.80
2022-11-17T07:54:25.674Z,8.20
2022-11-17T08:09:29.510Z,10.80
2022-11-17T08:24:33.026Z,21.10
2022-11-17T08:39:36.385Z,12.60
2022-11-17T08:54:40.101Z,60.00
2022-11-17T09:09:44.348Z,137.40
2022-11-17T09:24:47.807Z,38.40
2022-11-17T09:39:51.525Z,8.40
2022-11-17T09:55:21.876Z,8.30
2022-11-17T10:10:35.286Z,9.70
2022-11-17T10:25:41.797Z,7.60
2022-11-17T10:40:45.740Z,57.60
2022-11-17T10:56:05.355Z,17.20
2022-11-17T11:11:19.618Z,12.00
2022-11-17T11:26:47.335Z,27.60
2022-11-17T11:42:22.610Z,11.40
2022-11-17T11:57:35.850Z,21.00
2022-11-17T12:12:40.994Z,7.70
2022-11-17T12:27:46.113Z,7.60
2022-11-17T12:43:28.086Z,20.50
2022-11-17T12:59:05.161Z,11.30
2022-11-17T13:14:14.420Z,6.20
2022-11-17T13:29:23.044Z,8.90
2022-11-17T13:44:28.688Z,9.00
2022-11-17T13:59:35.279Z,9.50
2022-11-17T14:14:38.895Z,18.10
2022-11-17T14:29:42.768Z,68.40
2022-11-17T14:44:46.805Z,24.90
2022-11-17T14:59:50.110Z,24.70
2022-11-17T15:14:53.969Z,37.90
2022-11-17T15:29:57.757Z,38.70
2022-11-17T15:45:01.327Z,56.90
2022-11-17T16:00:07.066Z,181.90
2022-11-17T16:15:11.132Z,56.70
2022-11-17T16:30:16.061Z,100.90
2022-11-17T16:45:20.185Z,55.80
2022-11-17T17:00:23.478Z,70.30
2022-11-17T17:15:26.922Z,53.90
2022-11-17T17:30:30.897Z,39.00
2022-11-17T17:45:38.124Z,90.30
2022-11-17T18:00:41.647Z,119.50
2022-11-17T18:15:45.445Z,249.20
2022-11-17T18:30:49.569Z,175.70
2022-11-17T18:45:53.223Z,86.90
2022-11-17T19:00:58.069Z,199.70
2022-11-17T19:16:22.809Z,213.30
2022-11-17T19:31:26.677Z,148.20
2022-11-17T19:46:31.931Z,118.80
2022-11-17T20:01:36.095Z,118.20
2022-11-17T20:16:39.683Z,133.60
2022-11-17T20:31:43.102Z,178.60
2022-11-17T20:46:46.658Z,192.20
2022-11-17T21:01:50.821Z,113.40
2022-11-17T21:16:57.847Z,111.40
2022-11-17T21:32:01.220Z,81.90
2022-11-17T21:47:04.468Z,64.40
2022-11-17T22:02:10.245Z,43.60
2022-11-17T22:17:14.027Z,21.80
2022-11-17T22:32:17.461Z,26.20
2022-11-17T22:47:20.696Z,24.20
2022-11-17T23:02:24.240Z,26.20
2022-11-17T23:17:27.838Z,27.00
2022-11-17T23:32:31.151Z,13.80
2022-11-17T23:47:34.982Z,20.70
